Time;durP1;ratioP1;P1;durP2;ratioP2;P2;SDS_P1;SDS_P2;PMS_P1;PMS_P2;Temp;Humidity;BMP_temperature;BMP_pressure;BME280_temperature;BME280_humidity;BME280_pressure;Samples;Min_cycle;Max_cycle;Signal;HPM_P1;HPM_P2
2023/06/02 04:53:15;;;;;;;2.10;2.00;;;24.10;60.20;;;;;;5049122;23;20325;-69
2023/06/02 04:55:44;;;;;;;2.85;2.13;;;24.10;60.70;;;;;;4916900;29;20248;-69
2023/06/02 04:58:11;;;;;;;2.30;2.03;;;24.10;58.50;;;;;;4917049;29;20209;-68
2023/06/02 05:00:38;;;;;;;2.25;2.05;;;24.40;60.20;;;;;;4916978;29;20209;-67
2023/06/02 05:03:05;;;;;;;2.45;2.35;;;25.10;59.40;;;;;;4916493;29;20590;-68
2023/06/02 05:05:32;;;;;;;2.38;2.25;;;25.90;58.80;;;;;;4916958;29;20304;-67
2023/06/02 05:07:58;;;;;;;2.40;2.10;;;26.90;53.00;;;;;;4917505;29;20208;-71
2023/06/02 05:10:26;;;;;;;2.53;2.38;;;27.70;51.80;;;;;;4916615;29;20609;-72
2023/06/02 05:12:54;;;;;;;2.88;2.67;;;28.20;52.20;;;;;;4916590;29;20756;-72
2023/06/02 05:15:20;;;;;;;3.35;2.75;;;28.60;49.70;;;;;;4916824;29;20209;-72
2023/06/02 05:17:47;;;;;;;5.88;2.42;;;28.70;50.00;;;;;;4916803;29;20211;-71
2023/06/02 05:20:14;;;;;;;4.93;2.80;;;28.60;48.30;;;;;;4916841;29;20221;-71
2023/06/02 05:22:40;;;;;;;3.58;3.28;;;28.70;48.10;;;;;;4916818;29;20280;-70
2023/06/02 05:25:08;;;;;;;4.47;3.35;;;28.80;46.30;;;;;;4918771;29;20573;-71
2023/06/02 05:27:37;;;;;;;3.97;3.50;;;28.70;47.20;;;;;;4920821;29;20205;-71
2023/06/02 05:30:04;;;;;;;4.20;3.05;;;27.50;49.00;;;;;;4920295;29;20205;-71
2023/06/02 05:32:31;;;;;;;3.80;3.05;;;26.70;51.50;;;;;;4920652;29;20216;-71
2023/06/02 05:34:58;;;;;;;2.90;2.63;;;27.10;50.50;;;;;;4920357;29;20212;-71
2023/06/02 05:37:24;;;;;;;3.65;3.35;;;27.50;50.10;;;;;;4920682;29;20204;-71
2023/06/02 05:39:52;;;;;;;4.38;3.67;;;27.80;47.80;;;;;;4920472;29;20228;-71
2023/06/02 05:42:19;;;;;;;7.30;3.60;;;27.30;47.00;;;;;;4920399;29;20684;-71
2023/06/02 05:44:47;;;;;;;8.52;3.95;;;26.70;48.00;;;;;;4920490;29;20209;-71
2023/06/02 05:47:14;;;;;;;4.78;3.45;;;26.60;50.10;;;;;;4920520;29;20260;-71
2023/06/02 05:49:40;;;;;;;4.95;4.45;;;26.80;49.70;;;;;;4920562;29;20213;-71
2023/06/02 05:52:07;;;;;;;5.78;4.22;;;26.80;47.30;;;;;;4920283;29;20232;-70
2023/06/02 05:54:34;;;;;;;4.00;3.70;;;26.60;48.40;;;;;;4920242;29;20224;-71
2023/06/02 05:57:01;;;;;;;4.47;3.90;;;26.60;48.40;;;;;;4920133;29;20204;-71
2023/06/02 05:59:28;;;;;;;3.53;3.22;;;26.20;48.80;;;;;;4920389;29;20236;-70
2023/06/02 06:01:56;;;;;;;5.65;3.88;;;26.60;49.40;;;;;;4920349;29;20315;-70
2023/06/02 06:04:23;;;;;;;5.35;3.92;;;27.20;50.20;;;;;;4920036;29;20672;-72
2023/06/02 06:06:49;;;;;;;4.28;3.97;;;27.00;48.00;;;;;;4920065;29;20557;-71
2023/06/02 06:09:16;;;;;;;3.63;3.30;;;27.20;47.90;;;;;;4920016;29;20732;-71
2023/06/02 06:11:43;;;;;;;3.97;3.30;;;28.20;48.30;;;;;;4920259;29;20225;-71
2023/06/02 06:14:10;;;;;;;3.50;3.20;;;29.10;44.90;;;;;;4919780;29;20264;-71
2023/06/02 06:16:38;;;;;;;5.03;3.28;;;29.60;46.30;;;;;;4919995;29;20213;-71
2023/06/02 06:19:06;;;;;;;5.82;3.25;;;30.10;47.20;;;;;;4919960;29;20596;-71
2023/06/02 06:21:35;;;;;;;2.78;2.60;;;;;;;;;;4919879;29;20220;-71
2023/06/02 06:24:02;;;;;;;4.43;3.30;;;31.40;42.60;;;;;;4919660;29;20229;-72
2023/06/02 06:26:28;;;;;;;2.70;2.50;;;31.40;42.20;;;;;;4919657;29;20208;-72
2023/06/02 06:28:55;;;;;;;3.38;3.08;;;32.00;46.70;;;;;;4919711;29;20209;-71
2023/06/02 06:31:22;;;;;;;4.40;3.60;;;32.00;36.30;;;;;;4919456;29;20209;-70
2023/06/02 06:33:48;;;;;;;3.45;3.17;;;31.60;38.30;;;;;;4919229;29;20625;-71
2023/06/02 06:36:16;;;;;;;5.53;3.50;;;31.70;38.90;;;;;;4918975;29;20265;-71
2023/06/02 06:38:43;;;;;;;3.58;3.28;;;31.70;40.40;;;;;;4919025;29;20208;-71
2023/06/02 06:41:10;;;;;;;3.92;3.63;;;31.70;35.00;;;;;;4919064;29;20213;-70
2023/06/02 06:43:37;;;;;;;4.43;3.55;;;31.10;24.70;;;;;;4919348;29;20217;-71
2023/06/02 06:46:04;;;;;;;2.90;2.70;;;30.80;26.00;;;;;;4920665;29;20213;-71
2023/06/02 06:48:31;;;;;;;3.92;3.38;;;30.60;26.70;;;;;;4923102;29;20208;-71
2023/06/02 06:50:58;;;;;;;4.05;3.65;;;30.50;25.80;;;;;;4923950;29;20240;-71
2023/06/02 06:53:27;;;;;;;3.90;3.60;;;30.20;26.30;;;;;;4923526;29;20224;-70
2023/06/02 06:55:54;;;;;;;3.33;3.00;;;29.90;26.70;;;;;;4923909;29;20315;-70
2023/06/02 06:58:21;;;;;;;4.13;3.72;;;29.90;27.60;;;;;;4922125;29;20193;-70
2023/06/02 07:00:48;;;;;;;3.30;3.00;;;30.70;26.10;;;;;;4923025;29;20644;-70
2023/06/02 07:03:15;;;;;;;3.28;3.08;;;31.00;27.40;;;;;;4922775;29;20236;-70
2023/06/02 07:05:44;;;;;;;5.05;3.53;;;31.50;26.90;;;;;;4922247;29;20209;-70
2023/06/02 07:08:11;;;;;;;3.42;3.13;;;31.40;25.10;;;;;;4922039;29;20236;-69
2023/06/02 07:10:40;;;;;;;4.15;3.67;;;31.20;26.70;;;;;;4922590;29;20319;-70
2023/06/02 07:13:07;;;;;;;3.10;2.90;;;30.80;26.00;;;;;;4922539;29;20591;-67
2023/06/02 07:15:34;;;;;;;5.45;3.70;;;30.90;26.90;;;;;;4922486;29;20260;-67
2023/06/02 07:18:00;;;;;;;;;;;31.00;25.90;;;;;;4923049;29;20247;-67
2023/06/02 07:20:27;;;;;;;;;;;30.60;26.30;;;;;;4923283;29;20355;-67
2023/06/02 07:22:55;;;;;;;;;;;31.10;28.00;;;;;;4922588;29;19923;-67
2023/06/02 07:25:22;;;;;;;;;;;31.90;25.50;;;;;;4923205;29;19923;-67
2023/06/02 07:27:50;;;;;;;;;;;31.40;25.10;;;;;;4920880;29;20431;-67
2023/06/02 07:30:16;;;;;;;;;;;30.90;26.20;;;;;;4918907;29;19923;-67
2023/06/02 07:32:43;;;;;;;;;;;30.70;27.20;;;;;;4918747;29;20351;-67
2023/06/02 07:35:09;;;;;;;;;;;31.20;26.00;;;;;;4918530;29;19930;-66
2023/06/02 07:37:36;;;;;;;;;;;31.90;25.90;;;;;;4918771;29;19922;-67
2023/06/02 07:40:03;;;;;;;;;;;32.50;25.40;;;;;;4918716;29;19923;-67
2023/06/02 07:42:29;;;;;;;;;;;32.70;24.50;;;;;;4918767;29;19933;-68
2023/06/02 07:44:57;;;;;;;;;;;32.50;25.00;;;;;;4918786;29;19923;-68
2023/06/02 07:47:24;;;;;;;;;;;32.40;24.50;;;;;;4917779;29;19966;-67
2023/06/02 07:49:50;;;;;;;;;;;31.60;24.60;;;;;;4918672;29;19986;-68
2023/06/02 07:52:17;;;;;;;;;;;31.00;26.30;;;;;;4918613;29;19930;-68
2023/06/02 07:54:43;;;;;;;;;;;31.30;27.50;;;;;;4918568;29;19923;-68
2023/06/02 07:57:10;;;;;;;3.63;3.33;;;32.10;25.20;;;;;;4917907;29;20449;-68
2023/06/02 07:59:37;;;;;;;3.83;3.00;;;;;;;;;;4918237;29;20216;-68
2023/06/02 08:02:06;;;;;;;2.97;2.85;;;32.40;26.10;;;;;;4917892;29;20224;-68
2023/06/02 08:04:33;;;;;;;3.47;3.25;;;32.30;24.80;;;;;;4917858;29;20315;-68
2023/06/02 08:07:00;;;;;;;3.85;2.72;;;31.80;25.60;;;;;;4918043;29;20260;-68
2023/06/02 08:09:27;;;;;;;3.20;3.03;;;30.90;26.00;;;;;;4918215;29;20193;-68
2023/06/02 08:11:53;;;;;;;2.75;2.58;;;29.90;27.50;;;;;;4918337;29;20233;-67
2023/06/02 08:14:20;;;;;;;5.65;3.50;;;;;;;;;;4917870;29;20200;-67
2023/06/02 08:16:48;;;;;;;4.20;2.88;;;;;;;;;;4917590;29;20268;-67
2023/06/02 08:19:17;;;;;;;3.28;3.00;;;;;;;;;;4917586;29;20300;-68
2023/06/02 08:21:44;;;;;;;4.82;3.13;;;27.50;29.00;;;;;;4917322;29;20788;-68
2023/06/02 08:24:11;;;;;;;3.45;3.15;;;24.80;36.20;;;;;;4917573;29;20217;-68
2023/06/02 08:26:39;;;;;;;3.22;3.03;;;24.30;38.40;;;;;;4917522;29;20209;-68
2023/06/02 08:29:08;;;;;;;3.25;2.95;;;24.20;37.10;;;;;;4917223;29;20215;-68
2023/06/02 08:31:35;;;;;;;3.13;2.85;;;24.00;37.60;;;;;;4917420;29;20299;-67
2023/06/02 08:34:03;;;;;;;3.30;3.03;;;23.80;38.40;;;;;;4917406;29;20288;-68
2023/06/02 08:36:32;;;;;;;3.50;3.25;;;23.70;38.70;;;;;;4917533;29;20219;-68
2023/06/02 08:39:05;;;;;;;3.58;3.28;;;23.40;39.00;;;;;;4917660;29;20224;-68
2023/06/02 08:41:34;;;;;;;3.17;2.97;;;23.20;39.80;;;;;;4917448;29;20307;-68
2023/06/02 08:44:01;;;;;;;2.78;2.58;;;22.90;39.50;;;;;;4917250;29;20217;-67
2023/06/02 08:46:28;;;;;;;2.72;1.92;;;22.80;38.00;;;;;;4917436;29;20189;-68
2023/06/02 08:48:58;;;;;;;3.33;3.03;;;22.80;36.50;;;;;;4917094;29;20695;-68
2023/06/02 08:51:24;;;;;;;2.00;1.88;;;22.70;36.80;;;;;;4916899;29;20228;-67
2023/06/02 08:53:52;;;;;;;2.40;2.03;;;22.80;36.80;;;;;;4916838;29;20656;-69
2023/06/02 08:56:19;;;;;;;2.67;2.47;;;22.90;38.80;;;;;;4917169;29;20372;-68
2023/06/02 08:58:48;;;;;;;2.50;2.40;;;23.20;39.70;;;;;;4916709;29;20205;-68
2023/06/02 09:01:15;;;;;;;2.20;2.00;;;23.30;37.70;;;;;;4916947;29;20204;-68
2023/06/02 09:03:42;;;;;;;2.17;2.08;;;23.40;37.90;;;;;;4917004;29;20228;-68
2023/06/02 09:06:19;;;;;;;2.53;2.33;;;23.50;37.00;;;;;;4917004;29;20208;-68
2023/06/02 09:08:54;;;;;;;2.72;1.98;;;23.50;35.60;;;;;;4917249;29;20208;-68
2023/06/02 09:11:22;;;;;;;3.55;2.05;;;23.40;34.90;;;;;;4916891;29;20268;-69
2023/06/02 09:13:49;;;;;;;4.35;2.20;;;23.20;35.30;;;;;;4917073;29;20228;-68
2023/06/02 09:16:15;;;;;;;1.80;1.80;;;23.00;36.20;;;;;;4916627;29;20695;-68
2023/06/02 09:18:55;;;;;;;1.77;1.70;;;23.00;35.40;;;;;;4917101;29;20200;-68
2023/06/02 09:21:27;;;;;;;2.38;2.17;;;23.20;36.40;;;;;;4917005;29;20227;-68
2023/06/02 09:23:58;;;;;;;1.73;1.63;;;23.50;36.30;;;;;;4916513;29;20217;-68
2023/06/02 09:26:27;;;;;;;2.78;2.15;;;23.90;38.20;;;;;;4917003;29;20196;-67
2023/06/02 09:29:05;;;;;;;1.80;1.70;;;24.10;35.40;;;;;;4916864;29;20322;-68
2023/06/02 09:31:45;;;;;;;1.58;1.58;;;24.40;36.20;;;;;;4916886;29;20237;-68
2023/06/02 09:34:12;;;;;;;1.73;1.63;;;24.70;36.20;;;;;;4916869;29;20197;-68
2023/06/02 09:36:39;;;;;;;1.55;1.55;;;24.90;36.00;;;;;;4916818;29;20216;-68
2023/06/02 09:39:10;;;;;;;4.68;2.67;;;25.10;34.90;;;;;;4916810;29;20212;-68
2023/06/02 09:41:37;;;;;;;2.33;2.22;;;24.90;34.20;;;;;;4916675;29;20225;-68
2023/06/02 09:44:12;;;;;;;2.33;2.22;;;24.70;35.20;;;;;;4916643;29;20228;-68
2023/06/02 09:46:43;;;;;;;2.30;2.10;;;24.70;35.00;;;;;;4916793;29;20211;-68
2023/06/02 09:49:11;;;;;;;1.70;1.70;;;24.90;34.20;;;;;;4916548;29;20216;-68
2023/06/02 09:51:38;;;;;;;2.60;1.88;;;25.00;33.80;;;;;;4916408;29;20247;-68
2023/06/02 09:54:07;;;;;;;2.05;1.90;;;25.10;31.10;;;;;;4916216;29;20673;-68
2023/06/02 09:56:36;;;;;;;2.42;2.22;;;25.10;32.00;;;;;;4916447;29;20288;-68
2023/06/02 09:59:05;;;;;;;3.58;2.55;;;25.20;31.10;;;;;;4916666;29;20205;-67
2023/06/02 10:01:32;;;;;;;3.05;2.67;;;25.10;31.00;;;;;;4916235;29;20228;-68
2023/06/02 10:03:59;;;;;;;2.60;2.40;;;25.00;31.00;;;;;;4916606;29;20236;-67
2023/06/02 10:06:36;;;;;;;2.30;2.20;;;24.90;31.70;;;;;;4916231;29;20546;-68
2023/06/02 10:09:19;;;;;;;2.00;1.90;;;24.90;31.50;;;;;;4916514;29;20201;-68
2023/06/02 10:11:57;;;;;;;2.83;2.00;;;25.00;32.80;;;;;;4919268;29;20233;-68
2023/06/02 10:14:41;;;;;;;2.05;1.85;;;25.20;33.50;;;;;;4921128;29;20185;-68
2023/06/02 10:17:17;;;;;;;1.98;1.88;;;25.40;34.50;;;;;;4920772;29;20185;-68
2023/06/02 10:20:13;;;;;;;3.00;2.80;;;25.60;35.20;;;;;;4919965;29;20605;-65
2023/06/02 10:22:50;;;;;;;2.78;2.63;;;25.50;36.10;;;;;;4920255;29;20267;-67
2023/06/02 10:25:25;;;;;;;3.20;2.58;;;25.70;35.20;;;;;;4920169;29;20260;-65
2023/06/02 10:27:52;;;;;;;2.60;2.40;;;25.40;34.80;;;;;;4920392;29;20223;-66
2023/06/02 10:30:20;;;;;;;2.97;2.70;;;25.40;34.80;;;;;;4920066;29;20204;-67
2023/06/02 10:32:49;;;;;;;3.28;2.97;;;25.10;35.80;;;;;;4919751;29;20726;-66
2023/06/02 10:35:16;;;;;;;3.47;2.63;;;24.90;36.10;;;;;;4919601;29;20204;-68
2023/06/02 10:37:43;;;;;;;2.50;2.40;;;24.90;37.00;;;;;;4920125;29;20211;-67
2023/06/02 10:40:11;;;;;;;2.60;2.50;;;24.90;37.00;;;;;;4919698;29;20302;-71
2023/06/02 10:42:59;;;;;;;2.42;2.25;;;25.00;36.80;;;;;;4919462;29;20232;-68
2023/06/02 10:45:36;;;;;;;2.35;2.20;;;25.00;36.90;;;;;;4919082;29;20232;-67
2023/06/02 10:48:39;;;;;;;5.97;2.67;;;25.10;37.40;;;;;;4919183;29;20192;-67
2023/06/02 10:51:07;;;;;;;2.63;2.42;;;25.10;36.30;;;;;;4918967;29;20236;-69
2023/06/02 10:53:33;;;;;;;2.95;2.75;;;24.90;37.30;;;;;;4919469;29;20205;-69
2023/06/02 10:56:40;;;;;;;2.60;2.40;;;24.80;36.50;;;;;;4919518;29;20212;-70
2023/06/02 10:59:09;;;;;;;2.92;2.50;;;24.90;38.50;;;;;;4919612;29;20204;-72
2023/06/02 11:01:47;;;;;;;5.50;2.60;;;24.70;38.30;;;;;;4919743;29;20228;-71
2023/06/02 11:04:27;;;;;;;2.08;2.00;;;24.50;38.50;;;;;;4919254;29;20228;-72
2023/06/02 11:07:15;;;;;;;2.30;2.20;;;24.50;38.80;;;;;;4941130;23;20554;-71
2023/06/02 11:09:43;;;;;;;2.67;2.47;;;24.50;40.30;;;;;;4919293;29;20208;-67
2023/06/02 11:12:10;;;;;;;2.55;2.45;;;24.40;39.10;;;;;;4919136;29;20300;-66
2023/06/02 11:15:14;;;;;;;1.90;1.90;;;24.50;41.20;;;;;;4919150;29;20207;-66
2023/06/02 11:17:43;;;;;;;2.38;2.28;;;24.70;43.20;;;;;;4918895;29;20232;-66
2023/06/02 11:20:13;;;;;;;2.20;1.95;;;24.90;51.70;;;;;;4918731;29;20744;-65
2023/06/02 11:22:40;;;;;;;2.50;2.30;;;25.10;58.50;;;;;;4918914;29;20197;-65
2023/06/02 11:25:08;;;;;;;1.77;1.67;;;25.10;54.70;;;;;;4918820;29;20205;-65
2023/06/02 11:27:37;;;;;;;1.60;1.50;;;25.30;51.80;;;;;;4918812;29;20719;-65
2023/06/02 11:30:06;;;;;;;1.92;1.85;;;25.50;47.40;;;;;;4919018;29;20236;-65
2023/06/02 11:32:33;;;;;;;4.38;2.63;;;25.70;46.60;;;;;;4918995;29;20209;-65
2023/06/02 11:35:07;;;;;;;3.17;2.90;;;25.60;48.40;;;;;;4918740;29;20208;-65
2023/06/02 11:37:36;;;;;;;4.53;2.83;;;25.40;49.50;;;;;;4918659;29;20263;-65
2023/06/02 11:40:05;;;;;;;4.20;2.90;;;25.20;50.30;;;;;;4918764;29;20380;-65
2023/06/02 11:42:36;;;;;;;2.40;2.30;;;25.10;51.50;;;;;;4918541;29;20649;-64
2023/06/02 11:45:03;;;;;;;2.33;2.22;;;25.10;46.40;;;;;;4918664;29;20284;-64
2023/06/02 11:47:30;;;;;;;2.85;2.65;;;25.20;41.50;;;;;;4918302;29;20708;-64
2023/06/02 11:49:57;;;;;;;4.05;3.70;;;25.40;42.60;;;;;;4918546;29;20209;-64
2023/06/02 11:52:25;;;;;;;4.05;3.65;;;25.40;41.80;;;;;;4918394;29;20249;-65
2023/06/02 11:54:52;;;;;;;3.47;2.90;;;25.20;43.30;;;;;;4918096;29;20209;-64
2023/06/02 11:57:27;;;;;;;3.53;3.25;;;25.20;42.40;;;;;;4918293;29;20232;-65
2023/06/02 12:00:12;;;;;;;3.33;3.03;;;25.00;44.10;;;;;;4917858;29;20204;-65
2023/06/02 12:02:43;;;;;;;4.15;3.00;;;25.00;43.10;;;;;;4918422;29;20288;-66
2023/06/02 12:05:11;;;;;;;4.95;3.58;;;25.00;42.90;;;;;;4918207;29;20209;-66
2023/06/02 12:07:40;;;;;;;3.08;2.80;;;24.80;43.60;;;;;;4917531;29;20228;-65
2023/06/02 12:10:08;;;;;;;2.83;2.63;;;24.70;44.30;;;;;;4918127;29;20613;-65
2023/06/02 12:12:34;;;;;;;3.58;3.30;;;24.70;43.20;;;;;;4917918;29;20212;-65
2023/06/02 12:15:13;;;;;;;3.50;3.03;;;24.80;43.00;;;;;;4918037;29;20548;-65
2023/06/02 12:17:41;;;;;;;3.10;2.90;;;24.80;44.80;;;;;;4917904;29;20235;-65
2023/06/02 12:20:09;;;;;;;2.78;2.58;;;25.00;44.20;;;;;;4917884;29;20228;-65
2023/06/02 12:22:36;;;;;;;2.92;2.80;;;25.20;43.60;;;;;;4917659;29;20260;-66
2023/06/02 12:25:13;;;;;;;2.78;2.58;;;25.30;43.20;;;;;;4917780;29;20228;-65
2023/06/02 12:27:40;;;;;;;3.88;3.20;;;25.40;41.70;;;;;;4917799;29;20224;-65
2023/06/02 12:30:08;;;;;;;2.42;2.33;;;25.40;40.80;;;;;;4917979;29;20252;-65
2023/06/02 12:32:34;;;;;;;3.20;2.90;;;25.40;41.40;;;;;;4917674;29;20291;-65
2023/06/02 12:35:01;;;;;;;3.13;2.80;;;25.40;41.70;;;;;;4917089;29;20201;-65
2023/06/02 12:37:29;;;;;;;3.63;2.60;;;25.30;43.40;;;;;;4917185;29;20235;-65
2023/06/02 12:39:56;;;;;;;2.90;2.70;;;25.20;43.30;;;;;;4917755;29;20236;-65
2023/06/02 12:42:24;;;;;;;3.22;3.00;;;25.20;42.90;;;;;;4917561;29;20229;-65
2023/06/02 12:44:52;;;;;;;4.25;2.83;;;25.20;43.20;;;;;;4917178;29;20598;-64
2023/06/02 12:47:19;;;;;;;3.00;2.85;;;24.90;44.30;;;;;;4917376;29;20300;-65
2023/06/02 12:49:47;;;;;;;5.00;2.70;;;24.70;46.00;;;;;;4917434;29;20263;-65
2023/06/02 12:52:14;;;;;;;4.03;3.63;;;24.50;45.80;;;;;;4917462;29;20588;-66
2023/06/02 12:54:41;;;;;;;3.47;3.28;;;24.30;45.50;;;;;;4917326;29;20205;-65
2023/06/02 12:57:08;;;;;;;3.30;3.10;;;24.20;45.00;;;;;;4917514;29;20271;-65
2023/06/02 12:59:36;;;;;;;3.20;2.80;;;24.20;46.80;;;;;;4917088;29;20723;-67
2023/06/02 13:02:03;;;;;;;3.35;2.97;;;24.20;46.40;;;;;;4917485;29;20209;-65
2023/06/02 13:04:32;;;;;;;2.78;2.55;;;24.50;46.90;;;;;;4917474;29;20247;-64
2023/06/02 13:07:01;;;;;;;3.15;2.85;;;24.70;45.30;;;;;;4917237;29;20731;-65
2023/06/02 13:09:28;;;;;;;2.63;2.38;;;24.80;46.20;;;;;;4917757;29;20205;-64
2023/06/02 13:11:55;;;;;;;2.90;2.70;;;25.10;46.40;;;;;;4917692;29;20549;-63
2023/06/02 14:21:42;;;;;;;4.38;3.65;;;24.80;40.90;;;;;;5225247;23;20259;-65
2023/06/02 14:24:09;;;;;;;3.88;3.67;;;24.80;38.60;;;;;;4919548;29;20304;-65
2023/06/02 14:26:36;;;;;;;4.45;3.70;;;24.90;39.60;;;;;;4919999;29;20280;-65
2023/06/02 14:29:03;;;;;;;4.05;3.75;;;25.00;39.80;;;;;;4919851;29;20205;-65
2023/06/02 14:31:30;;;;;;;4.63;3.95;;;25.20;39.50;;;;;;4919436;29;20455;-65
2023/06/02 14:33:56;;;;;;;6.00;4.18;;;25.30;38.50;;;;;;4919512;29;20678;-64
2023/06/02 14:36:23;;;;;;;3.45;3.25;;;25.40;38.40;;;;;;4919668;29;20209;-64
2023/06/02 14:38:51;;;;;;;4.75;3.53;;;25.50;38.00;;;;;;4919982;29;20209;-64
2023/06/02 14:41:18;;;;;;;4.20;3.90;;;25.50;37.00;;;;;;4920085;29;20248;-64
2023/06/02 14:43:45;;;;;;;3.55;3.13;;;25.40;36.70;;;;;;4919638;29;20209;-64
2023/06/02 14:46:12;;;;;;;3.88;3.58;;;25.50;37.10;;;;;;4919521;29;20233;-64
2023/06/02 14:48:38;;;;;;;3.92;3.53;;;25.40;37.30;;;;;;4919731;29;20239;-63
2023/06/02 14:51:05;;;;;;;4.63;4.28;;;25.20;38.10;;;;;;4919573;29;20591;-64
2023/06/02 14:53:32;;;;;;;4.05;3.60;;;25.10;38.80;;;;;;4919509;29;20204;-65
2023/06/02 14:56:01;;;;;;;5.35;3.75;;;24.90;38.70;;;;;;4919247;29;20200;-64
2023/06/02 14:58:28;;;;;;;5.20;3.90;;;24.70;39.90;;;;;;4919273;29;20676;-64
2023/06/02 15:00:54;;;;;;;4.38;3.97;;;24.60;40.70;;;;;;4919382;29;20351;-64
2023/06/02 15:03:21;;;;;;;6.20;4.22;;;24.40;40.80;;;;;;4920295;29;20205;-65
2023/06/02 15:05:48;;;;;;;4.45;4.05;;;24.30;41.50;;;;;;4919122;29;20696;-64
2023/06/02 15:08:15;;;;;;;6.15;3.97;;;24.10;41.90;;;;;;4919629;29;20209;-62
2023/06/02 15:10:42;;;;;;;4.18;3.70;;;24.00;41.80;;;;;;4920026;29;20229;-64
2023/06/02 15:13:10;;;;;;;4.72;4.30;;;23.80;42.30;;;;;;4919907;29;20205;-64
2023/06/02 15:15:38;;;;;;;4.65;4.25;;;23.60;43.00;;;;;;4919243;29;20260;-63
2023/06/02 15:18:05;;;;;;;4.47;4.07;;;23.50;43.20;;;;;;4919369;29;20208;-64
2023/06/02 15:20:31;;;;;;;7.72;4.10;;;23.50;44.30;;;;;;4919150;29;20225;-64
2023/06/02 15:22:58;;;;;;;4.13;3.72;;;23.50;43.90;;;;;;4918965;29;20217;-64
2023/06/02 15:25:25;;;;;;;4.65;4.25;;;23.40;43.40;;;;;;4918981;29;20220;-63
2023/06/02 15:27:51;;;;;;;3.45;3.30;;;23.20;43.90;;;;;;4918949;29;20209;-63
2023/06/02 15:30:19;;;;;;;3.78;3.50;;;23.10;44.00;;;;;;4918539;29;20213;-64
2023/06/02 15:32:46;;;;;;;4.25;3.85;;;23.10;44.10;;;;;;4918725;29;20216;-63
2023/06/02 15:35:15;;;;;;;5.07;3.97;;;23.00;43.90;;;;;;4918651;29;20197;-64
2023/06/02 15:37:41;;;;;;;4.57;4.18;;;23.00;44.30;;;;;;4918476;29;20215;-63
2023/06/02 15:40:10;;;;;;;4.28;3.97;;;22.90;45.10;;;;;;4918506;29;20209;-64
2023/06/02 15:42:36;;;;;;;4.05;3.75;;;22.90;45.00;;;;;;4919036;29;20201;-64
2023/06/02 15:45:03;;;;;;;4.20;3.88;;;22.90;45.80;;;;;;4918523;29;20229;-64
2023/06/02 15:47:31;;;;;;;3.83;3.55;;;22.80;45.40;;;;;;4918522;29;20205;-65
2023/06/02 15:50:01;;;;;;;4.90;3.75;;;22.90;45.90;;;;;;4918063;29;20677;-64
2023/06/02 15:52:28;;;;;;;4.53;3.95;;;23.00;45.60;;;;;;4918146;29;20732;-64
2023/06/02 15:54:54;;;;;;;3.38;3.03;;;23.00;45.50;;;;;;4918314;29;20212;-64
2023/06/02 15:57:21;;;;;;;3.92;3.55;;;22.80;45.00;;;;;;4918492;29;20272;-64
2023/06/02 15:59:48;;;;;;;4.28;3.88;;;22.80;45.70;;;;;;4918595;29;20215;-64
2023/06/02 16:02:15;;;;;;;4.43;3.80;;;22.80;46.40;;;;;;4918242;29;20228;-64
2023/06/02 16:04:43;;;;;;;4.82;3.58;;;22.80;45.70;;;;;;4918355;29;20192;-64
2023/06/02 16:07:09;;;;;;;5.10;3.75;;;22.70;45.60;;;;;;4918346;29;20204;-64
2023/06/02 16:09:36;;;;;;;4.43;4.05;;;22.60;45.60;;;;;;4917629;29;20201;-64
2023/06/02 16:12:03;;;;;;;4.55;3.75;;;22.50;46.10;;;;;;4918221;29;20225;-63
2023/06/02 16:14:30;;;;;;;4.65;3.88;;;22.30;47.20;;;;;;4918587;29;20208;-63
2023/06/02 16:16:57;;;;;;;7.18;4.25;;;22.20;46.70;;;;;;4918096;29;20204;-64
2023/06/02 16:19:23;;;;;;;4.55;3.80;;;22.20;47.10;;;;;;4918136;29;20216;-64
2023/06/02 16:21:51;;;;;;;5.13;4.05;;;22.10;48.20;;;;;;4917935;29;20228;-64
2023/06/02 16:24:18;;;;;;;4.38;3.97;;;22.00;47.10;;;;;;4917649;29;20224;-64
2023/06/02 16:26:44;;;;;;;5.60;3.85;;;21.90;47.70;;;;;;4917798;29;20225;-64
2023/06/02 16:29:12;;;;;;;5.72;3.80;;;21.90;48.70;;;;;;4917775;29;20260;-65
2023/06/02 16:31:39;;;;;;;5.80;4.25;;;21.80;48.60;;;;;;4917672;29;20225;-64
2023/06/02 16:34:06;;;;;;;9.05;3.55;;;21.80;48.60;;;;;;4917396;29;20256;-64
2023/06/02 16:36:33;;;;;;;5.70;3.97;;;21.80;48.80;;;;;;4917198;29;20215;-64
2023/06/02 16:39:01;;;;;;;5.32;3.65;;;21.80;49.10;;;;;;4917399;29;20276;-64
2023/06/02 16:41:28;;;;;;;3.40;3.20;;;21.80;48.60;;;;;;4917512;29;20232;-65
2023/06/02 16:43:54;;;;;;;6.07;3.78;;;21.80;48.60;;;;;;4917766;29;20205;-65
2023/06/02 16:46:21;;;;;;;4.50;3.42;;;21.80;49.40;;;;;;4918192;29;20249;-65
2023/06/02 16:48:48;;;;;;;3.90;3.60;;;21.80;49.40;;;;;;4917403;29;20205;-65
2023/06/02 16:51:15;;;;;;;4.07;3.70;;;21.80;50.00;;;;;;4917210;29;20716;-66
2023/06/02 16:53:41;;;;;;;4.00;3.60;;;21.80;49.40;;;;;;4917503;29;20271;-66
2023/06/02 16:56:09;;;;;;;5.50;4.32;;;21.80;48.60;;;;;;4917355;29;20197;-66
2023/06/02 16:58:36;;;;;;;5.25;4.22;;;21.70;48.50;;;;;;4917453;29;20200;-66
2023/06/02 17:01:03;;;;;;;5.88;4.45;;;21.70;48.90;;;;;;4917831;29;20263;-66
2023/06/02 17:03:30;;;;;;;4.47;4.07;;;21.60;48.80;;;;;;4917291;29;20205;-65
2023/06/02 17:05:57;;;;;;;3.97;3.67;;;21.60;48.80;;;;;;4916877;29;20220;-65
2023/06/02 17:08:23;;;;;;;5.47;4.38;;;21.60;48.90;;;;;;4916802;29;20607;-65
2023/06/02 17:10:50;;;;;;;4.72;4.05;;;21.60;48.70;;;;;;4917293;29;20235;-65
2023/06/02 17:13:18;;;;;;;7.80;3.92;;;21.50;48.40;;;;;;4917117;29;20208;-65
2023/06/02 17:15:45;;;;;;;5.20;3.85;;;21.60;48.50;;;;;;4917423;29;20201;-66
2023/06/02 17:18:12;;;;;;;4.68;4.13;;;21.60;48.40;;;;;;4918096;29;20264;-65
2023/06/02 17:20:39;;;;;;;4.05;3.65;;;21.60;50.10;;;;;;4920124;29;20228;-66
2023/06/02 17:23:05;;;;;;;4.60;3.70;;;21.50;48.30;;;;;;4921070;29;20217;-65
2023/06/02 17:25:32;;;;;;;3.45;3.25;;;21.50;48.30;;;;;;4920897;29;20208;-66
2023/06/02 17:27:59;;;;;;;4.13;3.83;;;21.40;48.90;;;;;;4921200;29;20199;-66
2023/06/02 17:30:27;;;;;;;4.32;3.85;;;21.40;47.60;;;;;;4920973;29;20221;-66
2023/06/02 17:32:54;;;;;;;4.60;3.47;;;21.40;47.50;;;;;;4920969;29;20636;-65
2023/06/02 17:35:20;;;;;;;4.35;3.92;;;21.30;47.80;;;;;;4920942;29;20259;-65
2023/06/02 17:37:47;;;;;;;4.25;3.40;;;21.20;48.00;;;;;;4920984;29;20205;-66
2023/06/02 17:40:14;;;;;;;8.85;4.43;;;21.10;47.60;;;;;;4920895;29;20204;-67
2023/06/02 17:42:41;;;;;;;4.70;4.30;;;21.10;48.00;;;;;;4920863;29;20205;-66
2023/06/02 17:45:09;;;;;;;4.03;3.72;;;21.10;48.00;;;;;;4920364;29;20209;-66
2023/06/02 17:47:37;;;;;;;3.78;3.47;;;21.00;48.20;;;;;;4920405;29;20764;-66
2023/06/02 17:50:04;;;;;;;4.22;3.90;;;20.90;48.60;;;;;;4920783;29;20216;-67
2023/06/02 17:52:31;;;;;;;4.03;3.72;;;20.90;49.40;;;;;;4920797;29;20292;-66
2023/06/02 17:54:58;;;;;;;4.18;3.88;;;20.90;49.60;;;;;;4921003;29;20312;-65
2023/06/02 17:57:25;;;;;;;4.72;3.50;;;20.80;49.40;;;;;;4920526;29;20217;-66
2023/06/02 17:59:51;;;;;;;4.13;3.83;;;20.70;49.60;;;;;;4921091;29;20212;-66
2023/06/02 18:02:19;;;;;;;5.28;4.20;;;20.70;49.80;;;;;;4921331;29;20221;-66
2023/06/02 18:04:52;;;;;;;4.15;3.75;;;20.60;50.10;;;;;;4920465;29;20293;-66
2023/06/02 18:07:19;;;;;;;5.35;3.63;;;20.50;49.10;;;;;;4920696;29;20283;-66
2023/06/02 18:09:45;;;;;;;3.47;3.28;;;20.40;50.00;;;;;;4920581;29;20616;-66
2023/06/02 18:12:12;;;;;;;4.28;3.60;;;20.40;50.10;;;;;;4920360;29;20284;-66
2023/06/02 18:14:39;;;;;;;3.05;2.83;;;20.30;49.70;;;;;;4920515;29;20205;-66
2023/06/02 18:17:06;;;;;;;3.85;3.55;;;20.30;50.00;;;;;;4920074;29;20672;-66
2023/06/02 18:19:33;;;;;;;4.00;3.70;;;20.20;50.60;;;;;;4920277;29;20685;-66
2023/06/02 18:22:01;;;;;;;4.03;3.67;;;20.20;52.10;;;;;;4920664;29;20221;-66
2023/06/02 18:24:28;;;;;;;3.75;3.45;;;20.10;52.10;;;;;;4920140;29;20691;-65
2023/06/02 18:26:55;;;;;;;3.55;3.30;;;20.00;53.00;;;;;;4920278;29;20316;-66
2023/06/02 18:29:22;;;;;;;3.50;3.30;;;19.90;52.60;;;;;;4920460;29;20317;-66
2023/06/02 18:31:48;;;;;;;3.70;3.50;;;19.80;53.50;;;;;;4919431;29;20236;-66
2023/06/02 18:34:15;;;;;;;3.75;3.45;;;19.80;54.80;;;;;;4920183;29;20201;-65
2023/06/02 18:36:43;;;;;;;3.45;3.22;;;19.70;55.00;;;;;;4920501;29;20201;-67
2023/06/02 18:39:11;;;;;;;3.40;3.10;;;19.60;54.20;;;;;;4920272;29;20205;-67
2023/06/02 18:41:37;;;;;;;4.38;3.15;;;19.50;54.20;;;;;;4919828;29;20225;-66
2023/06/02 18:44:04;;;;;;;3.75;3.42;;;19.50;53.80;;;;;;4919761;29;20201;-66
2023/06/02 18:46:32;;;;;;;3.10;2.90;;;19.30;53.70;;;;;;4920084;29;20228;-67
2023/06/02 18:48:58;;;;;;;3.70;3.40;;;19.20;54.60;;;;;;4919922;29;20570;-68
2023/06/02 18:51:26;;;;;;;4.75;3.33;;;19.10;56.00;;;;;;4919863;29;20228;-67
2023/06/02 18:53:52;;;;;;;5.70;3.80;;;19.10;56.00;;;;;;4919812;29;20209;-67
2023/06/02 18:56:20;;;;;;;4.05;3.65;;;19.10;56.00;;;;;;4919387;29;20580;-67
2023/06/02 18:58:47;;;;;;;4.97;3.55;;;18.90;58.30;;;;;;4919898;29;20213;-68